Time;durP1;ratioP1;P1;durP2;ratioP2;P2;SDS_P1;SDS_P2;PMS_P1;PMS_P2;Temp;Humidity;BMP_temperature;BMP_pressure;BME280_temperature;BME280_humidity;BME280_pressure;Samples;Min_cycle;Max_cycle;Signal;HPM_P1;HPM_P2
2021/05/25 00:00:49;;;;;;;1.48;0.73;;;17.50;57.10;;;;;;5053709;28;20202;-61
2021/05/25 00:03:14;;;;;;;1.33;0.88;;;17.50;57.20;;;;;;5054120;28;20195;-61
2021/05/25 00:05:41;;;;;;;1.83;0.75;;;17.50;57.10;;;;;;5053209;28;20175;-62
2021/05/25 00:08:08;;;;;;;1.52;0.90;;;17.50;57.20;;;;;;5053946;28;20233;-62
2021/05/25 00:10:34;;;;;;;1.27;0.80;;;17.50;57.20;;;;;;5053810;28;20205;-63
2021/05/25 00:12:59;;;;;;;0.90;0.90;;;17.50;57.20;;;;;;5053701;28;20179;-61
2021/05/25 00:15:26;;;;;;;1.92;0.90;;;17.50;57.20;;;;;;5054061;28;20218;-61
2021/05/25 00:17:52;;;;;;;1.45;0.82;;;17.50;57.20;;;;;;5053953;28;20259;-61
2021/05/25 00:20:17;;;;;;;0.77;0.77;;;17.50;57.30;;;;;;5053722;28;20175;-61
2021/05/25 00:22:43;;;;;;;1.52;1.00;;;17.50;57.30;;;;;;5053773;28;20241;-61
2021/05/25 00:25:10;;;;;;;0.80;0.80;;;17.50;57.20;;;;;;5053875;28;20163;-61
2021/05/25 00:27:35;;;;;;;0.85;0.85;;;17.50;57.30;;;;;;5052603;28;20203;-61
2021/05/25 00:30:01;;;;;;;0.73;0.73;;;17.50;57.30;;;;;;5053320;28;20201;-61
2021/05/25 00:32:26;;;;;;;0.80;0.80;;;17.50;57.30;;;;;;5053710;28;20182;-61
2021/05/25 00:34:52;;;;;;;1.60;0.75;;;17.50;57.30;;;;;;5052528;28;20582;-61
2021/05/25 00:37:17;;;;;;;0.80;0.80;;;17.50;57.30;;;;;;5053604;28;20740;-61
2021/05/25 00:39:45;;;;;;;1.13;0.77;;;17.40;57.20;;;;;;5052729;28;20219;-61
2021/05/25 00:42:11;;;;;;;1.50;0.85;;;17.50;57.30;;;;;;5053994;28;20179;-61
2021/05/25 00:44:36;;;;;;;1.20;1.10;;;17.50;57.20;;;;;;5053788;28;20182;-61
2021/05/25 00:47:02;;;;;;;0.98;0.98;;;17.40;57.20;;;;;;5052689;28;20183;-61
2021/05/25 00:49:27;;;;;;;1.40;1.30;;;17.40;57.20;;;;;;5053288;28;20638;-61
2021/05/25 00:51:53;;;;;;;0.73;0.73;;;17.40;57.30;;;;;;5052798;28;20630;-62
2021/05/25 00:54:18;;;;;;;0.80;0.73;;;17.40;57.30;;;;;;5052627;28;20182;-61
2021/05/25 00:56:44;;;;;;;0.93;0.93;;;17.50;57.30;;;;;;5052724;28;20203;-62
2021/05/25 00:59:09;;;;;;;1.48;1.08;;;17.40;57.30;;;;;;5035637;28;20267;-61
2021/05/25 01:01:36;;;;;;;3.90;0.90;;;17.40;57.30;;;;;;5034534;28;20170;-61
2021/05/25 01:04:01;;;;;;;1.33;0.90;;;17.40;57.30;;;;;;5035315;28;20175;-61
2021/05/25 01:06:27;;;;;;;1.15;0.90;;;17.40;57.20;;;;;;5053098;28;20528;-62
2021/05/25 01:08:52;;;;;;;1.02;0.80;;;17.40;57.30;;;;;;5051054;28;20189;-62
2021/05/25 01:11:19;;;;;;;1.13;1.02;;;17.40;57.30;;;;;;5052913;28;20542;-62
2021/05/25 01:13:54;;;;;;;1.95;0.80;;;17.40;57.30;;;;;;5052541;28;20174;-61
2021/05/25 01:16:22;;;;;;;1.10;1.02;;;17.40;57.30;;;;;;5052115;28;20183;-61
2021/05/25 01:18:48;;;;;;;0.73;0.73;;;17.40;57.30;;;;;;5052315;28;20179;-61
2021/05/25 01:21:13;;;;;;;1.00;0.90;;;17.40;57.30;;;;;;5052925;28;20589;-61
2021/05/25 01:23:39;;;;;;;1.45;0.93;;;17.40;57.30;;;;;;5052029;28;20182;-61
2021/05/25 01:26:05;;;;;;;1.10;1.00;;;17.40;57.30;;;;;;5053240;28;20590;-61
2021/05/25 01:28:30;;;;;;;0.90;0.90;;;17.40;57.30;;;;;;5052649;28;20218;-61
2021/05/25 01:30:56;;;;;;;1.00;0.98;;;17.40;57.30;;;;;;5052535;28;20171;-61
2021/05/25 01:33:27;;;;;;;1.13;1.02;;;17.40;57.30;;;;;;5053241;28;20179;-61
2021/05/25 01:35:52;;;;;;;0.95;0.95;;;17.40;57.30;;;;;;5051910;28;20179;-61
2021/05/25 01:38:18;;;;;;;1.80;0.95;;;17.30;57.30;;;;;;5052952;28;20221;-61
2021/05/25 01:40:44;;;;;;;0.80;0.80;;;17.40;57.40;;;;;;5052262;28;20248;-61
2021/05/25 01:43:12;;;;;;;0.82;0.82;;;17.40;57.30;;;;;;5052462;28;20179;-61
2021/05/25 01:45:38;;;;;;;0.60;0.60;;;17.30;57.30;;;;;;5052565;28;20201;-61
2021/05/25 01:48:05;;;;;;;1.25;0.98;;;17.40;57.30;;;;;;5052522;28;20677;-61
2021/05/25 01:50:31;;;;;;;0.88;0.88;;;17.30;57.30;;;;;;5051656;28;20179;-62
2021/05/25 01:53:03;;;;;;;2.25;1.05;;;17.30;57.30;;;;;;5034612;28;20244;-62
2021/05/25 01:55:36;;;;;;;1.00;0.60;;;17.30;57.30;;;;;;5052732;28;20167;-62
2021/05/25 01:58:18;;;;;;;0.77;0.73;;;17.30;57.30;;;;;;5051634;28;20203;-61
2021/05/25 02:00:48;;;;;;;0.77;0.68;;;17.30;57.30;;;;;;5052171;28;20591;-61
2021/05/25 02:03:13;;;;;;;0.80;0.73;;;17.30;57.90;;;;;;5052413;28;20186;-61
2021/05/25 02:05:39;;;;;;;0.70;0.70;;;17.30;57.30;;;;;;5051427;28;20167;-62
2021/05/25 02:08:05;;;;;;;0.63;0.63;;;17.30;57.30;;;;;;5052547;28;20183;-62
2021/05/25 02:10:39;;;;;;;0.75;0.75;;;17.30;57.40;;;;;;5054644;28;20183;-61
2021/05/25 02:13:06;;;;;;;1.17;0.93;;;17.30;57.30;;;;;;5056008;28;20190;-61
2021/05/25 02:15:32;;;;;;;0.90;0.90;;;17.30;57.30;;;;;;5056100;28;20179;-61
2021/05/25 02:18:07;;;;;;;1.63;1.00;;;17.30;57.30;;;;;;5056373;28;20272;-61
2021/05/25 02:20:33;;;;;;;0.80;0.80;;;17.30;57.30;;;;;;5056292;28;20175;-61
2021/05/25 02:22:59;;;;;;;0.95;0.80;;;17.30;57.40;;;;;;5056369;28;20175;-61
2021/05/25 02:25:24;;;;;;;1.00;0.90;;;17.30;57.30;;;;;;5055558;28;20583;-61
2021/05/25 02:27:50;;;;;;;1.48;0.95;;;17.30;57.30;;;;;;5055932;28;20373;-61
2021/05/25 02:30:15;;;;;;;1.13;1.10;;;17.30;57.30;;;;;;5056474;28;20629;-61
2021/05/25 02:32:41;;;;;;;0.85;0.85;;;17.30;57.30;;;;;;5055444;28;20215;-61
2021/05/25 02:35:07;;;;;;;1.05;0.70;;;17.20;57.40;;;;;;5056037;28;20212;-61
2021/05/25 02:37:33;;;;;;;1.75;0.90;;;17.20;57.30;;;;;;5055988;28;20206;-61
2021/05/25 02:40:00;;;;;;;1.02;0.98;;;17.30;57.30;;;;;;5054938;28;20219;-61
2021/05/25 02:42:25;;;;;;;0.85;0.73;;;17.20;57.30;;;;;;5055812;28;20630;-61
2021/05/25 02:44:51;;;;;;;0.70;0.70;;;17.20;57.30;;;;;;5055702;28;20179;-61
2021/05/25 02:47:16;;;;;;;0.80;0.80;;;17.20;57.30;;;;;;5055505;28;20179;-61
2021/05/25 02:49:42;;;;;;;0.70;0.70;;;17.20;57.30;;;;;;5055522;28;20640;-61
2021/05/25 02:52:07;;;;;;;1.00;0.90;;;17.20;57.30;;;;;;5055878;28;20182;-62
2021/05/25 02:54:33;;;;;;;0.73;0.73;;;17.20;57.30;;;;;;5054767;28;20171;-62
2021/05/25 02:56:58;;;;;;;1.30;1.02;;;17.20;57.30;;;;;;5055481;28;20214;-61
2021/05/25 02:59:24;;;;;;;1.08;0.75;;;17.20;57.30;;;;;;5037909;28;20587;-60
2021/05/25 03:01:52;;;;;;;0.95;0.80;;;17.20;57.40;;;;;;5055087;28;20179;-61
2021/05/25 03:04:18;;;;;;;1.23;1.13;;;17.20;57.30;;;;;;5055827;28;20187;-61
2021/05/25 03:06:43;;;;;;;1.10;0.90;;;17.20;57.40;;;;;;5055203;28;20297;-61
2021/05/25 03:09:09;;;;;;;0.93;0.90;;;17.20;57.30;;;;;;5054342;28;20178;-62
2021/05/25 03:11:34;;;;;;;0.70;0.70;;;17.20;57.30;;;;;;5054918;28;20501;-61
2021/05/25 03:14:00;;;;;;;1.20;0.90;;;17.20;57.30;;;;;;5055572;28;20175;-61
2021/05/25 03:16:25;;;;;;;0.65;0.65;;;17.20;57.30;;;;;;5054575;28;20245;-61
2021/05/25 03:18:51;;;;;;;1.08;0.93;;;17.20;57.30;;;;;;5037169;28;20186;-61
2021/05/25 03:21:16;;;;;;;0.70;0.70;;;17.20;57.30;;;;;;5053749;28;20634;-61
2021/05/25 03:23:42;;;;;;;0.82;0.82;;;17.20;57.30;;;;;;5054450;28;20534;-61
2021/05/25 03:26:08;;;;;;;0.70;0.70;;;17.20;57.30;;;;;;5055322;28;20167;-61
2021/05/25 03:28:33;;;;;;;1.00;0.90;;;17.10;57.30;;;;;;5053877;28;20175;-61
2021/05/25 03:30:59;;;;;;;1.08;0.70;;;17.20;57.40;;;;;;5054990;28;20185;-61
2021/05/25 03:33:24;;;;;;;0.68;0.68;;;17.20;57.30;;;;;;5055119;28;20179;-61
2021/05/25 03:35:49;;;;;;;0.65;0.57;;;17.20;57.30;;;;;;5054276;28;20171;-61
2021/05/25 03:38:15;;;;;;;0.93;0.90;;;17.20;57.30;;;;;;5054712;28;20605;-61
2021/05/25 03:40:41;;;;;;;0.93;0.93;;;17.10;57.40;;;;;;5054213;28;20247;-61
2021/05/25 03:43:06;;;;;;;0.70;0.70;;;17.10;57.30;;;;;;5053810;28;20262;-61
2021/05/25 03:45:32;;;;;;;0.70;0.70;;;17.10;57.30;;;;;;5054446;28;20225;-61
2021/05/25 03:47:57;;;;;;;1.10;1.00;;;17.10;57.30;;;;;;5054918;28;20175;-61
2021/05/25 03:50:23;;;;;;;0.93;0.80;;;17.10;57.30;;;;;;5053822;28;20175;-61
2021/05/25 03:52:51;;;;;;;1.38;0.80;;;17.10;57.30;;;;;;5053953;28;20175;-62
2021/05/25 04:00:36;;;;;;;0.85;0.85;;;17.10;57.30;;;;;;5054248;28;20194;-61
2021/05/25 04:03:02;;;;;;;1.63;0.70;;;17.10;57.30;;;;;;5055993;28;20649;-61
2021/05/25 04:05:27;;;;;;;1.25;0.80;;;17.10;57.30;;;;;;5054180;28;20167;-62
2021/05/25 04:07:53;;;;;;;1.00;0.90;;;17.10;57.30;;;;;;5054155;28;20260;-62
2021/05/25 04:10:18;;;;;;;0.90;0.80;;;17.10;57.30;;;;;;5054130;28;20171;-62
2021/05/25 04:12:44;;;;;;;0.80;0.60;;;17.10;57.40;;;;;;5054244;28;20186;-61
2021/05/25 04:15:09;;;;;;;0.63;0.63;;;17.10;57.30;;;;;;5055351;28;20166;-62
2021/05/25 04:17:36;;;;;;;1.17;1.00;;;17.10;57.30;;;;;;5053180;28;20264;-61
2021/05/25 04:20:01;;;;;;;1.40;0.90;;;17.10;57.30;;;;;;5053651;28;20586;-61
2021/05/25 04:22:27;;;;;;;1.30;0.80;;;17.10;57.90;;;;;;5054376;28;20179;-61
2021/05/25 04:24:52;;;;;;;0.70;0.70;;;17.10;57.30;;;;;;5052535;28;20533;-61
2021/05/25 04:27:18;;;;;;;1.80;1.00;;;17.10;57.30;;;;;;5053822;28;20183;-61
2021/05/25 04:29:43;;;;;;;1.05;0.90;;;17.10;57.30;;;;;;5053406;28;20167;-61
2021/05/25 04:32:09;;;;;;;1.33;0.68;;;17.10;57.30;;;;;;5053388;28;20179;-61
2021/05/25 04:34:34;;;;;;;1.02;0.95;;;17.10;57.30;;;;;;5053265;28;20237;-61
2021/05/25 04:37:00;;;;;;;0.70;0.70;;;17.10;57.30;;;;;;5053749;28;20291;-61
2021/05/25 04:39:25;;;;;;;0.75;0.75;;;17.10;57.30;;;;;;5052861;28;20276;-61
2021/05/25 04:41:51;;;;;;;0.98;0.88;;;17.10;57.30;;;;;;5053192;28;20178;-60
2021/05/25 04:44:16;;;;;;;0.80;0.80;;;17.10;57.40;;;;;;5053751;28;20621;-61
2021/05/25 04:46:42;;;;;;;0.80;0.80;;;17.10;57.30;;;;;;5052762;28;20190;-61
2021/05/25 04:49:07;;;;;;;1.50;0.80;;;17.10;57.30;;;;;;5053139;28;20186;-61
2021/05/25 04:51:33;;;;;;;1.00;0.88;;;17.10;57.40;;;;;;5053479;28;20178;-62
2021/05/25 04:53:58;;;;;;;1.17;0.70;;;17.10;57.30;;;;;;5052744;28;20580;-61
2021/05/25 04:56:24;;;;;;;1.08;0.90;;;17.10;57.30;;;;;;5053677;28;20265;-61
2021/05/25 04:58:49;;;;;;;0.88;0.88;;;17.10;57.30;;;;;;5052753;28;20221;-61
2021/05/25 05:01:15;;;;;;;1.23;1.00;;;17.10;57.40;;;;;;5052929;28;20167;-61
2021/05/25 05:03:40;;;;;;;0.80;0.80;;;17.10;57.60;;;;;;5053118;28;20661;-61
2021/05/25 05:06:06;;;;;;;1.95;1.25;;;17.10;57.70;;;;;;5053851;28;20622;-64
2021/05/25 05:08:32;;;;;;;2.97;1.00;;;17.20;58.50;;;;;;5052670;28;20503;-64
2021/05/25 05:10:57;;;;;;;2.03;0.95;;;17.20;57.70;;;;;;5053112;28;20267;-62
2021/05/25 05:13:23;;;;;;;0.93;0.80;;;17.30;57.90;;;;;;5053172;28;20178;-61
2021/05/25 05:15:48;;;;;;;2.28;1.10;;;17.50;57.90;;;;;;5051864;28;20171;-62
2021/05/25 05:18:14;;;;;;;1.13;0.70;;;17.60;57.90;;;;;;5053657;28;20724;-61
2021/05/25 05:20:39;;;;;;;2.72;1.17;;;17.80;57.90;;;;;;5053239;28;20183;-61
2021/05/25 05:23:05;;;;;;;2.05;1.17;;;17.90;57.70;;;;;;5052511;28;20179;-61
2021/05/25 05:25:30;;;;;;;4.35;1.00;;;18.00;57.60;;;;;;5053435;28;20633;-61
2021/05/25 05:27:56;;;;;;;2.35;1.05;;;18.10;57.40;;;;;;5052352;28;20179;-62
2021/05/25 05:30:21;;;;;;;2.17;1.17;;;18.20;57.30;;;;;;5053123;28;20677;-62
2021/05/25 05:32:47;;;;;;;1.55;1.00;;;18.40;57.20;;;;;;5052425;28;20175;-62
2021/05/25 05:35:12;;;;;;;3.30;1.30;;;18.50;56.90;;;;;;5051687;28;20175;-62
2021/05/25 05:37:38;;;;;;;2.20;0.90;;;18.70;56.60;;;;;;5053325;28;20257;-62
2021/05/25 05:40:07;;;;;;;1.60;1.20;;;18.80;56.50;;;;;;5052749;28;20237;-62
2021/05/25 05:42:32;;;;;;;5.43;1.58;;;18.90;56.40;;;;;;5051681;28;20261;-61
2021/05/25 05:44:57;;;;;;;3.20;1.02;;;18.90;56.20;;;;;;5051900;28;20259;-63
2021/05/25 05:47:23;;;;;;;1.88;1.10;;;19.00;56.10;;;;;;5052696;28;20171;-61
2021/05/25 05:49:49;;;;;;;2.03;1.40;;;19.00;56.00;;;;;;5051428;28;21322;-62
2021/05/25 05:52:14;;;;;;;4.05;1.35;;;19.00;56.10;;;;;;5051231;28;20657;-62
2021/05/25 05:54:40;;;;;;;2.80;1.25;;;18.90;56.10;;;;;;5051864;28;20691;-61
2021/05/25 05:57:05;;;;;;;2.00;0.93;;;18.90;56.10;;;;;;5051451;28;20199;-61
2021/05/25 05:59:31;;;;;;;1.48;1.08;;;18.80;56.30;;;;;;5052131;28;20697;-61
2021/05/25 06:01:56;;;;;;;1.55;1.15;;;18.80;56.50;;;;;;5052212;28;20175;-61
2021/05/25 06:04:22;;;;;;;2.05;1.20;;;18.70;56.50;;;;;;5051690;28;20225;-62
2021/05/25 06:06:48;;;;;;;2.25;1.13;;;18.70;56.60;;;;;;5051778;28;20207;-62
2021/05/25 06:09:13;;;;;;;2.63;1.20;;;18.60;56.60;;;;;;5052363;28;20190;-62
2021/05/25 06:11:39;;;;;;;2.05;1.17;;;18.60;56.70;;;;;;5051289;28;20195;-62
2021/05/25 06:14:04;;;;;;;2.05;1.35;;;18.60;56.70;;;;;;5052222;28;20171;-61
2021/05/25 06:16:32;;;;;;;1.58;1.15;;;18.50;56.80;;;;;;5052004;28;20170;-61
2021/05/25 06:18:57;;;;;;;1.73;0.88;;;18.50;56.90;;;;;;5051190;28;20637;-61
2021/05/25 06:21:23;;;;;;;1.95;1.05;;;18.40;57.00;;;;;;5052329;28;20179;-61
2021/05/25 06:23:48;;;;;;;2.25;0.80;;;18.40;57.10;;;;;;5051579;28;20270;-61
2021/05/25 06:26:20;;;;;;;2.08;1.25;;;18.40;57.20;;;;;;5051521;28;20707;-60
2021/05/25 06:28:45;;;;;;;1.95;1.00;;;18.40;57.30;;;;;;5051752;28;20182;-61
2021/05/25 06:31:11;;;;;;;2.72;1.02;;;18.30;57.40;;;;;;5051995;28;20175;-61
2021/05/25 06:33:36;;;;;;;2.40;1.00;;;18.30;57.60;;;;;;5051287;28;20183;-61
2021/05/25 06:36:02;;;;;;;1.88;1.20;;;18.30;57.60;;;;;;5052091;28;20175;-61
2021/05/25 06:38:27;;;;;;;1.08;0.98;;;18.20;57.70;;;;;;5051473;28;20663;-60
2021/05/25 06:40:53;;;;;;;2.88;1.23;;;18.20;57.70;;;;;;5051389;28;20222;-62
2021/05/25 06:43:18;;;;;;;2.50;1.23;;;18.20;57.80;;;;;;5052001;28;20179;-61
2021/05/25 06:45:45;;;;;;;1.90;1.20;;;18.20;57.80;;;;;;5050853;28;20266;-65
2021/05/25 06:48:10;;;;;;;7.00;1.35;;;18.20;57.90;;;;;;5034469;28;20168;-63
2021/05/25 06:50:36;;;;;;;2.10;1.25;;;18.10;57.80;;;;;;5051872;28;20508;-63
2021/05/25 06:53:02;;;;;;;2.38;1.30;;;18.10;57.90;;;;;;5051267;28;20593;-63
2021/05/25 06:55:28;;;;;;;2.70;1.20;;;18.00;57.90;;;;;;5052292;28;20644;-62
2021/05/25 06:57:53;;;;;;;4.00;1.40;;;18.00;57.90;;;;;;5055730;28;20203;-62
2021/05/25 07:00:21;;;;;;;1.50;1.05;;;18.00;58.00;;;;;;5055167;28;20240;-63
2021/05/25 07:02:46;;;;;;;2.75;1.30;;;18.00;58.00;;;;;;5055733;28;20716;-62
2021/05/25 07:05:12;;;;;;;2.10;1.20;;;18.00;57.90;;;;;;5055866;28;20656;-63
2021/05/25 07:07:37;;;;;;;1.77;1.30;;;18.00;57.90;;;;;;5054471;28;20187;-63
2021/05/25 07:10:03;;;;;;;3.85;1.40;;;18.00;58.00;;;;;;5055679;28;20171;-63
2021/05/25 07:12:29;;;;;;;2.13;0.98;;;18.00;58.00;;;;;;5055802;28;20183;-63
2021/05/25 07:14:54;;;;;;;1.85;1.25;;;17.90;58.00;;;;;;5054215;28;20236;-62
2021/05/25 07:17:20;;;;;;;2.60;1.20;;;17.90;58.00;;;;;;5055088;28;20756;-62
2021/05/25 07:19:45;;;;;;;1.17;0.90;;;18.00;58.00;;;;;;5054639;28;20179;-62
2021/05/25 07:22:11;;;;;;;1.38;1.10;;;18.00;58.00;;;;;;5054130;28;20171;-62
2021/05/25 07:24:36;;;;;;;1.92;1.35;;;18.00;58.00;;;;;;5054800;28;20171;-62
2021/05/25 07:27:02;;;;;;;1.52;1.10;;;18.00;57.90;;;;;;5054747;28;20182;-62
2021/05/25 07:29:27;;;;;;;2.00;1.20;;;18.10;57.70;;;;;;5054158;28;20182;-62
2021/05/25 07:31:53;;;;;;;1.20;1.10;;;18.10;57.60;;;;;;5054773;28;20179;-63
2021/05/25 07:34:19;;;;;;;1.13;1.00;;;18.10;57.70;;;;;;5055105;28;20167;-63
2021/05/25 07:36:46;;;;;;;1.13;0.95;;;18.10;57.80;;;;;;5053646;28;20191;-62
2021/05/25 07:39:12;;;;;;;2.33;1.40;;;18.00;57.70;;;;;;5054773;28;20186;-64
2021/05/25 07:41:38;;;;;;;2.05;0.90;;;18.00;57.70;;;;;;5054116;28;20207;-62
2021/05/25 07:44:04;;;;;;;1.15;0.80;;;18.00;58.00;;;;;;5054666;28;20676;-62
2021/05/25 07:46:30;;;;;;;2.08;1.10;;;18.00;58.00;;;;;;5054789;28;20171;-62
2021/05/25 07:48:55;;;;;;;1.52;1.00;;;17.90;58.00;;;;;;5053976;28;20186;-63
2021/05/25 07:51:21;;;;;;;1.30;1.20;;;18.00;58.10;;;;;;5054504;28;20221;-63
2021/05/25 07:53:47;;;;;;;1.85;1.00;;;17.90;58.00;;;;;;5054196;28;20175;-63
2021/05/25 07:56:12;;;;;;;2.45;1.05;;;17.90;58.00;;;;;;5053608;28;20221;-63
2021/05/25 07:58:38;;;;;;;2.10;1.55;;;17.90;58.00;;;;;;5053839;28;20252;-62
2021/05/25 08:01:03;;;;;;;2.25;1.20;;;17.90;58.20;;;;;;5054034;28;20250;-62
2021/05/25 08:03:29;;;;;;;1.73;1.20;;;17.90;58.20;;;;;;5053601;28;20519;-63
2021/05/25 08:05:57;;;;;;;2.55;1.20;;;17.90;58.00;;;;;;5053958;28;20266;-63
2021/05/25 08:08:23;;;;;;;0.90;0.90;;;17.90;58.00;;;;;;5054060;28;20175;-63
2021/05/25 08:10:48;;;;;;;3.97;1.45;;;17.90;58.00;;;;;;5053184;28;20175;-63
2021/05/25 08:13:14;;;;;;;1.10;1.00;;;17.90;58.00;;;;;;5053870;28;20167;-62
2021/05/25 08:15:41;;;;;;;2.03;1.10;;;17.90;58.60;;;;;;5053998;28;20178;-63
2021/05/25 08:18:28;;;;;;;1.60;1.27;;;17.90;58.00;;;;;;5053891;28;20218;-62
2021/05/25 08:20:54;;;;;;;1.85;1.42;;;17.90;57.90;;;;;;5053686;28;20186;-62
2021/05/25 08:23:19;;;;;;;1.30;1.17;;;17.90;57.90;;;;;;5054134;28;20171;-62
2021/05/25 08:25:45;;;;;;;1.17;1.02;;;17.90;57.90;;;;;;5052505;28;20182;-62
2021/05/25 08:28:11;;;;;;;1.27;1.17;;;18.00;57.90;;;;;;5053743;28;20187;-62
2021/05/25 08:30:40;;;;;;;2.45;1.40;;;18.00;57.80;;;;;;5053705;28;20179;-62
2021/05/25 08:33:06;;;;;;;1.00;1.00;;;18.00;57.70;;;;;;5052786;28;20241;-62
2021/05/25 08:35:35;;;;;;;1.75;1.10;;;18.00;57.80;;;;;;5053261;28;20570;-63
2021/05/25 08:38:00;;;;;;;2.35;1.05;;;17.90;57.80;;;;;;5052750;28;20227;-62
2021/05/25 08:40:27;;;;;;;2.15;1.10;;;18.00;57.90;;;;;;5053496;28;20237;-63
2021/05/25 08:42:52;;;;;;;1.73;1.08;;;18.00;57.80;;;;;;5053225;28;20189;-62
2021/05/25 08:45:18;;;;;;;1.52;1.10;;;18.00;57.70;;;;;;5052512;28;20178;-62
2021/05/25 08:47:44;;;;;;;1.88;1.10;;;18.10;57.70;;;;;;5052825;28;20182;-63
2021/05/25 08:50:12;;;;;;;1.40;1.30;;;18.20;57.60;;;;;;5053514;28;20186;-63
2021/05/25 08:52:38;;;;;;;1.02;0.90;;;18.20;57.50;;;;;;5052569;28;20262;-63
2021/05/25 08:55:05;;;;;;;1.90;1.15;;;18.20;57.40;;;;;;5053110;28;20266;-63
2021/05/25 08:57:30;;;;;;;1.40;1.30;;;18.30;57.20;;;;;;5053360;28;20262;-63
2021/05/25 08:59:56;;;;;;;1.15;1.00;;;18.30;57.10;;;;;;5052097;28;20671;-62
2021/05/25 09:02:21;;;;;;;1.42;1.33;;;18.20;57.20;;;;;;5052925;28;20265;-63
2021/05/25 09:05:00;;;;;;;1.05;0.90;;;18.10;57.50;;;;;;5052616;28;20256;-63
2021/05/25 09:07:48;;;;;;;1.27;1.13;;;18.00;57.80;;;;;;5052114;28;20549;-63
2021/05/25 09:10:29;;;;;;;1.20;1.02;;;18.00;57.90;;;;;;5052855;28;20550;-63
2021/05/25 09:12:55;;;;;;;1.63;1.02;;;18.00;57.90;;;;;;5052576;28;20630;-63
2021/05/25 09:15:45;;;;;;;0.90;0.90;;;17.90;57.90;;;;;;5052222;28;20297;-62
2021/05/25 09:18:14;;;;;;;2.05;1.30;;;18.00;58.00;;;;;;5043137;28;20231;-62
2021/05/25 09:20:53;;;;;;;1.75;0.90;;;18.00;57.90;;;;;;5051038;28;20217;-63
2021/05/25 09:23:42;;;;;;;1.70;1.08;;;18.00;57.90;;;;;;5052842;28;20175;-62
2021/05/25 09:26:12;;;;;;;1.90;0.90;;;17.90;57.90;;;;;;5039627;28;20675;-62
2021/05/25 09:28:56;;;;;;;1.45;1.30;;;17.90;58.00;;;;;;5051790;28;20179;-63
2021/05/25 09:31:48;;;;;;;1.33;1.02;;;17.80;58.00;;;;;;5052668;28;20237;-62
2021/05/25 09:34:17;;;;;;;1.38;0.95;;;17.80;58.00;;;;;;5051921;28;20182;-62
2021/05/25 09:36:58;;;;;;;1.73;1.10;;;17.80;58.00;;;;;;5052011;28;20599;-63
2021/05/25 09:39:25;;;;;;;1.08;0.98;;;17.80;58.20;;;;;;5052586;28;20178;-63
2021/05/25 09:42:04;;;;;;;0.88;0.77;;;17.80;58.30;;;;;;5051882;28;20540;-62
2021/05/25 09:44:29;;;;;;;0.90;0.90;;;17.80;58.30;;;;;;5052877;28;20258;-62
2021/05/25 09:46:58;;;;;;;1.38;1.05;;;17.80;58.40;;;;;;5052147;28;20225;-61
2021/05/25 09:49:23;;;;;;;1.52;1.23;;;17.80;58.20;;;;;;5051697;28;20236;-63
2021/05/25 09:51:49;;;;;;;3.40;1.10;;;17.80;58.10;;;;;;5052457;28;20191;-63
2021/05/25 09:54:22;;;;;;;2.35;1.08;;;17.90;58.50;;;;;;5034701;28;20228;-63
2021/05/25 09:57:05;;;;;;;1.70;1.17;;;18.00;58.50;;;;;;5051132;28;20179;-63
2021/05/25 09:59:31;;;;;;;2.05;1.00;;;18.00;58.40;;;;;;5052105;28;20182;-62
2021/05/25 10:01:57;;;;;;;1.45;1.10;;;18.10;58.40;;;;;;5052321;28;20206;-62
2021/05/25 10:04:23;;;;;;;1.52;1.08;;;18.20;58.30;;;;;;5034110;28;20210;-62
2021/05/25 10:06:48;;;;;;;1.23;1.10;;;18.20;58.10;;;;;;5051969;28;20174;-64
2021/05/25 10:09:14;;;;;;;2.05;1.20;;;18.30;58.20;;;;;;5034381;28;20175;-63
2021/05/25 10:11:44;;;;;;;1.27;1.10;;;18.30;58.10;;;;;;5051791;28;20622;-64
2021/05/25 10:14:10;;;;;;;0.98;0.85;;;18.40;58.00;;;;;;5052294;28;20225;-62
2021/05/25 10:16:39;;;;;;;1.00;0.90;;;18.40;57.90;;;;;;5051430;28;20186;-63
2021/05/25 10:21:36;;;;;;;1.20;1.10;;;18.60;57.60;;;;;;5051967;28;20167;-62
2021/05/25 10:24:02;;;;;;;1.60;1.10;;;18.60;57.70;;;;;;5051327;28;20202;-62
2021/05/25 10:26:27;;;;;;;1.65;1.08;;;18.60;57.80;;;;;;5052043;28;20622;-63
2021/05/25 10:28:53;;;;;;;0.98;0.90;;;18.60;58.00;;;;;;5034296;28;20174;-63
2021/05/25 10:31:32;;;;;;;1.80;1.27;;;18.60;57.90;;;;;;5035598;28;20178;-63
2021/05/25 10:34:19;;;;;;;0.70;0.70;;;18.60;58.00;;;;;;5055932;28;20258;-63
2021/05/25 10:36:47;;;;;;;1.63;1.00;;;18.50;58.30;;;;;;5054985;28;20256;-64
2021/05/25 10:39:35;;;;;;;1.00;0.90;;;18.40;58.30;;;;;;5053335;28;20550;-61
2021/05/25 10:42:22;;;;;;;1.73;1.10;;;18.40;58.50;;;;;;5053265;28;20580;-61
2021/05/25 10:44:54;;;;;;;1.60;1.20;;;18.30;58.60;;;;;;5053094;28;20661;-61
2021/05/25 10:47:24;;;;;;;1.27;0.95;;;18.20;58.70;;;;;;5054894;28;20556;-61
2021/05/25 10:52:53;;;;;;;1.20;0.75;;;18.20;58.50;;;;;;5054529;28;20285;-62
2021/05/25 10:55:26;;;;;;;2.63;0.77;;;18.20;58.50;;;;;;5055355;28;20179;-61
2021/05/25 10:57:52;;;;;;;1.55;1.02;;;18.10;58.60;;;;;;5054876;28;20230;-61
2021/05/25 11:00:22;;;;;;;1.10;1.00;;;18.20;58.50;;;;;;5054530;28;20171;-61
2021/05/25 11:02:48;;;;;;;1.95;0.77;;;18.20;58.40;;;;;;5054796;28;20658;-61
2021/05/25 11:05:43;;;;;;;1.10;0.85;;;18.20;58.40;;;;;;5055391;28;20175;-62
2021/05/25 11:08:08;;;;;;;1.05;0.95;;;18.30;58.20;;;;;;5053333;28;20187;-62
2021/05/25 11:10:54;;;;;;;1.42;1.02;;;18.30;58.20;;;;;;5054960;28;20217;-62
2021/05/25 11:13:25;;;;;;;1.13;0.80;;;18.30;58.00;;;;;;5054428;28;20597;-61
2021/05/25 11:16:20;;;;;;;1.30;0.90;;;18.30;58.00;;;;;;5054587;28;20179;-61
2021/05/25 11:19:01;;;;;;;2.25;1.02;;;18.40;58.00;;;;;;5054678;28;20268;-61
2021/05/25 11:24:43;;;;;;;1.33;0.73;;;18.50;57.80;;;;;;5055015;28;20218;-61
2021/05/25 11:27:17;;;;;;;0.70;0.70;;;18.50;57.60;;;;;;5054593;28;20171;-61
2021/05/25 11:29:53;;;;;;;1.02;1.00;;;18.50;57.70;;;;;;5017307;28;20176;-61
2021/05/25 11:32:23;;;;;;;0.80;0.80;;;18.50;57.80;;;;;;5035132;28;20254;-61
2021/05/25 11:35:05;;;;;;;1.40;0.88;;;18.50;57.80;;;;;;5033663;28;20180;-65
2021/05/25 11:37:32;;;;;;;1.33;1.10;;;18.40;57.70;;;;;;5048211;28;20213;-63
2021/05/25 11:39:58;;;;;;;1.10;0.85;;;18.50;57.90;;;;;;5054581;28;20563;-63
2021/05/25 11:42:29;;;;;;;3.50;0.98;;;18.40;57.90;;;;;;5052807;28;20262;-63
2021/05/25 11:44:55;;;;;;;2.47;1.10;;;18.60;57.80;;;;;;5054343;28;20171;-63
2021/05/25 11:47:20;;;;;;;2.10;1.10;;;18.70;57.70;;;;;;5054305;28;20183;-63
2021/05/25 11:49:46;;;;;;;4.25;1.00;;;18.70;57.60;;;;;;5053234;28;20176;-63
2021/05/25 11:52:24;;;;;;;1.45;0.77;;;18.80;57.50;;;;;;5054436;28;20722;-63
2021/05/25 11:54:51;;;;;;;2.95;1.13;;;18.60;57.60;;;;;;5053332;28;20182;-63
2021/05/25 11:57:32;;;;;;;1.65;0.80;;;18.50;57.90;;;;;;5054356;28;20206;-64
2021/05/25 12:00:00;;;;;;;2.00;1.52;;;18.50;58.10;;;;;;5054035;28;20577;-63
2021/05/25 12:02:31;;;;;;;2.60;1.00;;;18.50;58.10;;;;;;5053328;28;20253;-63
2021/05/25 12:05:12;;;;;;;0.75;0.75;;;18.50;58.10;;;;;;5054303;28;20179;-63
2021/05/25 12:07:39;;;;;;;1.55;0.85;;;18.60;58.00;;;;;;5053814;28;20171;-63
2021/05/25 12:10:12;;;;;;;3.20;0.80;;;18.60;57.80;;;;;;5053394;28;20183;-64
2021/05/25 12:12:45;;;;;;;1.13;0.80;;;18.60;57.60;;;;;;5053782;28;20232;-63
2021/05/25 12:15:14;;;;;;;1.90;1.10;;;18.70;57.70;;;;;;5054097;28;20179;-62
2021/05/25 12:17:40;;;;;;;2.70;1.13;;;18.80;57.40;;;;;;5053018;28;20238;-63
2021/05/25 12:20:06;;;;;;;1.67;0.90;;;18.90;57.30;;;;;;5053880;28;20175;-63
2021/05/25 12:22:36;;;;;;;1.98;0.93;;;18.90;57.30;;;;;;5053567;28;20210;-63
2021/05/25 12:25:22;;;;;;;1.33;0.90;;;18.90;57.10;;;;;;5052945;28;20182;-62
2021/05/25 12:28:03;;;;;;;1.58;0.95;;;18.80;57.20;;;;;;5051641;28;20595;-63
2021/05/25 12:30:28;;;;;;;1.23;1.10;;;18.80;57.30;;;;;;5052692;28;20174;-63
2021/05/25 12:32:54;;;;;;;1.88;0.80;;;18.80;57.40;;;;;;5053041;28;20609;-63
2021/05/25 12:35:21;;;;;;;1.50;0.90;;;18.70;57.40;;;;;;5053050;28;20171;-63
2021/05/25 12:38:03;;;;;;;2.22;0.88;;;18.80;57.40;;;;;;5052229;28;20202;-63
2021/05/25 12:40:28;;;;;;;1.52;0.90;;;18.70;57.40;;;;;;5053300;28;20253;-63
2021/05/25 12:42:54;;;;;;;1.35;0.95;;;18.70;57.50;;;;;;5053228;28;20219;-63
2021/05/25 12:45:19;;;;;;;3.28;0.98;;;18.70;57.50;;;;;;5052700;28;20228;-63
2021/05/25 12:47:58;;;;;;;1.95;0.98;;;18.60;57.50;;;;;;5052845;28;20715;-63
2021/05/25 12:50:36;;;;;;;1.02;0.90;;;18.60;57.50;;;;;;5053447;28;20225;-63
2021/05/25 12:53:12;;;;;;;1.20;0.80;;;18.50;57.50;;;;;;5052577;28;20257;-63
2021/05/25 12:55:53;;;;;;;0.90;0.80;;;18.50;57.60;;;;;;5052974;28;20649;-62
2021/05/25 12:58:44;;;;;;;0.80;0.80;;;18.50;57.70;;;;;;5052511;28;20234;-62
2021/05/25 13:01:26;;;;;;;0.95;0.80;;;18.40;57.70;;;;;;5053269;28;20182;-62
2021/05/25 13:03:53;;;;;;;1.13;0.93;;;18.40;57.60;;;;;;5052735;28;20536;-63
2021/05/25 13:06:26;;;;;;;0.80;0.80;;;18.50;57.60;;;;;;5052368;28;20181;-63